sensor_id;sensor_type;location;lat;lon;timestamp;P1;durP1;ratioP1;P2;durP2;ratioP2
29202;SDS011;16245;51.170;4.884;2022-12-07T00:01:34;17.17;;;10.80;;
29202;SDS011;16245;51.170;4.884;2022-12-07T00:04:03;16.15;;;11.05;;
29202;SDS011;16245;51.170;4.884;2022-12-07T00:06:33;15.95;;;9.95;;
29202;SDS011;16245;51.170;4.884;2022-12-07T00:09:00;12.68;;;9.05;;
29202;SDS011;16245;51.170;4.884;2022-12-07T00:11:26;13.55;;;9.70;;
29202;SDS011;16245;51.170;4.884;2022-12-07T00:13:56;16.13;;;10.65;;
29202;SDS011;16245;51.170;4.884;2022-12-07T00:16:24;14.00;;;10.77;;
29202;SDS011;16245;51.170;4.884;2022-12-07T00:18:52;16.20;;;10.95;;
29202;SDS011;16245;51.170;4.884;2022-12-07T00:21:19;15.23;;;10.73;;
29202;SDS011;16245;51.170;4.884;2022-12-07T00:23:47;14.45;;;10.60;;
29202;SDS011;16245;51.170;4.884;2022-12-07T00:26:15;15.32;;;10.73;;
29202;SDS011;16245;51.170;4.884;2022-12-07T00:28:46;17.05;;;11.32;;
29202;SDS011;16245;51.170;4.884;2022-12-07T00:31:19;14.13;;;11.15;;
29202;SDS011;16245;51.170;4.884;2022-12-07T00:33:46;19.15;;;11.75;;
29202;SDS011;16245;51.170;4.884;2022-12-07T00:36:13;14.80;;;11.30;;
29202;SDS011;16245;51.170;4.884;2022-12-07T00:38:41;15.73;;;11.35;;
29202;SDS011;16245;51.170;4.884;2022-12-07T00:41:09;13.20;;;10.85;;
29202;SDS011;16245;51.170;4.884;2022-12-07T00:43:42;14.27;;;9.75;;
29202;SDS011;16245;51.170;4.884;2022-12-07T00:46:08;14.93;;;9.93;;
29202;SDS011;16245;51.170;4.884;2022-12-07T00:48:35;13.13;;;9.93;;
29202;SDS011;16245;51.170;4.884;2022-12-07T00:51:01;15.13;;;10.85;;
29202;SDS011;16245;51.170;4.884;2022-12-07T00:53:28;15.50;;;10.80;;
29202;SDS011;16245;51.170;4.884;2022-12-07T00:55:54;14.70;;;9.73;;
29202;SDS011;16245;51.170;4.884;2022-12-07T00:58:21;21.33;;;11.07;;
29202;SDS011;16245;51.170;4.884;2022-12-07T01:00:47;13.05;;;10.50;;
29202;SDS011;16245;51.170;4.884;2022-12-07T01:03:13;15.52;;;10.18;;
29202;SDS011;16245;51.170;4.884;2022-12-07T01:05:40;12.38;;;10.05;;
29202;SDS011;16245;51.170;4.884;2022-12-07T01:08:15;16.08;;;10.68;;
29202;SDS011;16245;51.170;4.884;2022-12-07T01:10:41;14.80;;;10.32;;
29202;SDS011;16245;51.170;4.884;2022-12-07T01:13:06;17.73;;;9.95;;
29202;SDS011;16245;51.170;4.884;2022-12-07T01:15:32;14.05;;;10.40;;
29202;SDS011;16245;51.170;4.884;2022-12-07T01:17:57;16.58;;;10.60;;
29202;SDS011;16245;51.170;4.884;2022-12-07T01:20:23;14.00;;;10.77;;
29202;SDS011;16245;51.170;4.884;2022-12-07T01:22:49;14.48;;;10.43;;
29202;SDS011;16245;51.170;4.884;2022-12-07T01:25:14;15.50;;;9.50;;
29202;SDS011;16245;51.170;4.884;2022-12-07T01:27:40;14.95;;;9.82;;
29202;SDS011;16245;51.170;4.884;2022-12-07T01:30:06;14.63;;;10.00;;
29202;SDS011;16245;51.170;4.884;2022-12-07T01:32:32;14.00;;;10.15;;
29202;SDS011;16245;51.170;4.884;2022-12-07T01:34:58;12.93;;;9.75;;
29202;SDS011;16245;51.170;4.884;2022-12-07T01:37:24;15.43;;;10.13;;
29202;SDS011;16245;51.170;4.884;2022-12-07T01:39:50;16.33;;;9.95;;
29202;SDS011;16245;51.170;4.884;2022-12-07T01:42:17;12.95;;;9.98;;
29202;SDS011;16245;51.170;4.884;2022-12-07T01:47:40;12.77;;;9.55;;
29202;SDS011;16245;51.170;4.884;2022-12-07T01:50:07;16.05;;;10.38;;
29202;SDS011;16245;51.170;4.884;2022-12-07T01:52:33;17.23;;;10.30;;
29202;SDS011;16245;51.170;4.884;2022-12-07T01:55:02;13.82;;;9.82;;
29202;SDS011;16245;51.170;4.884;2022-12-07T01:57:31;11.77;;;8.93;;
29202;SDS011;16245;51.170;4.884;2022-12-07T01:59:59;14.30;;;9.73;;
29202;SDS011;16245;51.170;4.884;2022-12-07T02:02:26;16.30;;;9.43;;
29202;SDS011;16245;51.170;4.884;2022-12-07T02:04:56;13.27;;;8.88;;
29202;SDS011;16245;51.170;4.884;2022-12-07T02:07:23;12.13;;;9.23;;
29202;SDS011;16245;51.170;4.884;2022-12-07T02:09:51;12.35;;;9.68;;
29202;SDS011;16245;51.170;4.884;2022-12-07T02:12:17;11.75;;;8.48;;
29202;SDS011;16245;51.170;4.884;2022-12-07T02:14:44;13.23;;;9.32;;
29202;SDS011;16245;51.170;4.884;2022-12-07T02:17:12;15.23;;;10.77;;
29202;SDS011;16245;51.170;4.884;2022-12-07T02:22:51;14.48;;;11.10;;
29202;SDS011;16245;51.170;4.884;2022-12-07T02:28:36;18.83;;;11.07;;
29202;SDS011;16245;51.170;4.884;2022-12-07T02:31:12;19.88;;;12.10;;
29202;SDS011;16245;51.170;4.884;2022-12-07T02:33:44;19.48;;;12.15;;
29202;SDS011;16245;51.170;4.884;2022-12-07T02:36:51;17.38;;;11.73;;
29202;SDS011;16245;51.170;4.884;2022-12-07T02:41:49;14.90;;;10.48;;
29202;SDS011;16245;51.170;4.884;2022-12-07T02:44:23;15.25;;;11.55;;
29202;SDS011;16245;51.170;4.884;2022-12-07T02:46:57;17.88;;;12.07;;
29202;SDS011;16245;51.170;4.884;2022-12-07T02:49:29;14.55;;;11.23;;
29202;SDS011;16245;51.170;4.884;2022-12-07T02:51:56;18.27;;;11.45;;
29202;SDS011;16245;51.170;4.884;2022-12-07T02:54:22;15.40;;;10.50;;
29202;SDS011;16245;51.170;4.884;2022-12-07T03:05:10;13.70;;;9.05;;
29202;SDS011;16245;51.170;4.884;2022-12-07T03:21:42;12.93;;;9.65;;
29202;SDS011;16245;51.170;4.884;2022-12-07T03:24:12;14.77;;;10.07;;
29202;SDS011;16245;51.170;4.884;2022-12-07T03:26:42;15.00;;;10.38;;
29202;SDS011;16245;51.170;4.884;2022-12-07T03:29:17;15.95;;;9.98;;
29202;SDS011;16245;51.170;4.884;2022-12-07T03:31:51;17.10;;;11.20;;
29202;SDS011;16245;51.170;4.884;2022-12-07T03:34:31;14.82;;;9.95;;
29202;SDS011;16245;51.170;4.884;2022-12-07T03:37:04;14.68;;;11.70;;
29202;SDS011;16245;51.170;4.884;2022-12-07T03:42:32;12.52;;;9.93;;
29202;SDS011;16245;51.170;4.884;2022-12-07T03:44:58;13.15;;;10.25;;
29202;SDS011;16245;51.170;4.884;2022-12-07T03:50:00;11.32;;;8.38;;
29202;SDS011;16245;51.170;4.884;2022-12-07T03:55:37;16.75;;;8.55;;
29202;SDS011;16245;51.170;4.884;2022-12-07T03:58:07;10.52;;;8.60;;
29202;SDS011;16245;51.170;4.884;2022-12-07T04:00:36;15.05;;;9.20;;
29202;SDS011;16245;51.170;4.884;2022-12-07T04:03:02;11.48;;;9.13;;
29202;SDS011;16245;51.170;4.884;2022-12-07T04:05:28;12.52;;;8.93;;
29202;SDS011;16245;51.170;4.884;2022-12-07T04:07:54;11.30;;;8.32;;
29202;SDS011;16245;51.170;4.884;2022-12-07T04:10:20;13.07;;;9.10;;
29202;SDS011;16245;51.170;4.884;2022-12-07T04:12:45;12.07;;;9.07;;
29202;SDS011;16245;51.170;4.884;2022-12-07T04:15:11;10.90;;;8.48;;
29202;SDS011;16245;51.170;4.884;2022-12-07T04:17:37;10.40;;;7.97;;
29202;SDS011;16245;51.170;4.884;2022-12-07T04:20:04;9.57;;;7.38;;
29202;SDS011;16245;51.170;4.884;2022-12-07T04:22:30;9.15;;;8.10;;
29202;SDS011;16245;51.170;4.884;2022-12-07T04:24:56;9.18;;;7.78;;
29202;SDS011;16245;51.170;4.884;2022-12-07T04:27:22;12.40;;;8.40;;
29202;SDS011;16245;51.170;4.884;2022-12-07T04:29:47;10.07;;;7.90;;
29202;SDS011;16245;51.170;4.884;2022-12-07T04:32:13;12.00;;;9.20;;
29202;SDS011;16245;51.170;4.884;2022-12-07T04:34:39;13.57;;;9.57;;
29202;SDS011;16245;51.170;4.884;2022-12-07T04:37:05;11.75;;;8.70;;
29202;SDS011;16245;51.170;4.884;2022-12-07T04:39:31;11.43;;;8.98;;
29202;SDS011;16245;51.170;4.884;2022-12-07T04:41:57;17.27;;;10.35;;
29202;SDS011;16245;51.170;4.884;2022-12-07T04:44:24;14.70;;;9.35;;
29202;SDS011;16245;51.170;4.884;2022-12-07T04:46:50;16.70;;;10.35;;
29202;SDS011;16245;51.170;4.884;2022-12-07T04:49:16;18.35;;;10.77;;
29202;SDS011;16245;51.170;4.884;2022-12-07T04:51:43;15.23;;;11.07;;
29202;SDS011;16245;51.170;4.884;2022-12-07T04:54:10;16.10;;;10.77;;
29202;SDS011;16245;51.170;4.884;2022-12-07T04:56:36;15.57;;;11.15;;
29202;SDS011;16245;51.170;4.884;2022-12-07T04:59:02;12.57;;;10.98;;
29202;SDS011;16245;51.170;4.884;2022-12-07T05:01:29;23.50;;;11.45;;
29202;SDS011;16245;51.170;4.884;2022-12-07T05:03:55;15.65;;;10.52;;
29202;SDS011;16245;51.170;4.884;2022-12-07T05:06:20;15.38;;;10.95;;
29202;SDS011;16245;51.170;4.884;2022-12-07T05:08:46;14.90;;;10.80;;
29202;SDS011;16245;51.170;4.884;2022-12-07T05:11:12;13.40;;;10.50;;
29202;SDS011;16245;51.170;4.884;2022-12-07T05:13:57;13.65;;;9.35;;
29202;SDS011;16245;51.170;4.884;2022-12-07T05:16:23;13.73;;;9.25;;
29202;SDS011;16245;51.170;4.884;2022-12-07T05:18:49;12.63;;;8.48;;
29202;SDS011;16245;51.170;4.884;2022-12-07T05:21:15;11.60;;;8.85;;
29202;SDS011;16245;51.170;4.884;2022-12-07T05:23:40;12.73;;;9.02;;
29202;SDS011;16245;51.170;4.884;2022-12-07T05:26:06;11.25;;;8.43;;
29202;SDS011;16245;51.170;4.884;2022-12-07T05:28:32;11.35;;;7.72;;
29202;SDS011;16245;51.170;4.884;2022-12-07T05:30:57;19.33;;;9.48;;
29202;SDS011;16245;51.170;4.884;2022-12-07T05:33:23;11.45;;;7.40;;
29202;SDS011;16245;51.170;4.884;2022-12-07T05:35:48;11.75;;;8.38;;
29202;SDS011;16245;51.170;4.884;2022-12-07T05:38:14;10.68;;;6.40;;
29202;SDS011;16245;51.170;4.884;2022-12-07T05:40:40;10.32;;;7.28;;
29202;SDS011;16245;51.170;4.884;2022-12-07T05:43:05;9.13;;;7.20;;
29202;SDS011;16245;51.170;4.884;2022-12-07T05:45:31;10.32;;;6.88;;
29202;SDS011;16245;51.170;4.884;2022-12-07T05:47:57;9.32;;;6.30;;
29202;SDS011;16245;51.170;4.884;2022-12-07T05:50:22;8.25;;;5.85;;
29202;SDS011;16245;51.170;4.884;2022-12-07T05:52:48;7.80;;;6.75;;
29202;SDS011;16245;51.170;4.884;2022-12-07T05:55:14;6.75;;;6.05;;
29202;SDS011;16245;51.170;4.884;2022-12-07T05:57:40;6.93;;;5.70;;
29202;SDS011;16245;51.170;4.884;2022-12-07T06:00:25;13.18;;;7.22;;
29202;SDS011;16245;51.170;4.884;2022-12-07T06:02:51;9.68;;;6.40;;
29202;SDS011;16245;51.170;4.884;2022-12-07T06:05:16;10.68;;;7.93;;
29202;SDS011;16245;51.170;4.884;2022-12-07T06:07:42;12.73;;;7.22;;
29202;SDS011;16245;51.170;4.884;2022-12-07T06:10:08;9.50;;;7.07;;
29202;SDS011;16245;51.170;4.884;2022-12-07T06:12:34;10.00;;;7.63;;
29202;SDS011;16245;51.170;4.884;2022-12-07T06:14:59;13.45;;;7.65;;
29202;SDS011;16245;51.170;4.884;2022-12-07T06:17:25;17.77;;;8.20;;
29202;SDS011;16245;51.170;4.884;2022-12-07T06:19:51;11.30;;;7.35;;
29202;SDS011;16245;51.170;4.884;2022-12-07T06:22:17;9.80;;;7.95;;
29202;SDS011;16245;51.170;4.884;2022-12-07T06:24:43;17.67;;;7.85;;
29202;SDS011;16245;51.170;4.884;2022-12-07T06:27:09;10.55;;;8.13;;
29202;SDS011;16245;51.170;4.884;2022-12-07T06:29:35;13.90;;;8.27;;
29202;SDS011;16245;51.170;4.884;2022-12-07T06:32:01;11.65;;;9.18;;
29202;SDS011;16245;51.170;4.884;2022-12-07T06:34:28;12.13;;;8.00;;
29202;SDS011;16245;51.170;4.884;2022-12-07T06:36:54;11.00;;;7.82;;
29202;SDS011;16245;51.170;4.884;2022-12-07T06:39:23;14.20;;;8.30;;
29202;SDS011;16245;51.170;4.884;2022-12-07T06:41:50;11.65;;;8.27;;
29202;SDS011;16245;51.170;4.884;2022-12-07T06:44:19;11.00;;;7.68;;
29202;SDS011;16245;51.170;4.884;2022-12-07T06:46:46;12.00;;;8.30;;
29202;SDS011;16245;51.170;4.884;2022-12-07T06:49:13;11.07;;;8.30;;
29202;SDS011;16245;51.170;4.884;2022-12-07T06:51:38;20.90;;;8.23;;
29202;SDS011;16245;51.170;4.884;2022-12-07T06:54:13;11.32;;;7.60;;
29202;SDS011;16245;51.170;4.884;2022-12-07T06:56:39;11.52;;;7.40;;
29202;SDS011;16245;51.170;4.884;2022-12-07T06:59:06;9.55;;;6.80;;
29202;SDS011;16245;51.170;4.884;2022-12-07T07:01:32;17.20;;;9.23;;
29202;SDS011;16245;51.170;4.884;2022-12-07T07:03:59;10.70;;;7.90;;
29202;SDS011;16245;51.170;4.884;2022-12-07T07:06:24;11.90;;;8.60;;
29202;SDS011;16245;51.170;4.884;2022-12-07T07:08:50;14.20;;;9.00;;
29202;SDS011;16245;51.170;4.884;2022-12-07T07:11:16;14.70;;;9.00;;
29202;SDS011;16245;51.170;4.884;2022-12-07T07:13:42;14.15;;;8.00;;
29202;SDS011;16245;51.170;4.884;2022-12-07T07:16:07;8.93;;;7.95;;
29202;SDS011;16245;51.170;4.884;2022-12-07T07:18:33;11.57;;;9.27;;
29202;SDS011;16245;51.170;4.884;2022-12-07T07:20:59;15.80;;;9.77;;
29202;SDS011;16245;51.170;4.884;2022-12-07T07:23:26;13.98;;;9.40;;
29202;SDS011;16245;51.170;4.884;2022-12-07T07:25:51;17.42;;;10.68;;
29202;SDS011;16245;51.170;4.884;2022-12-07T07:28:17;13.93;;;10.80;;
29202;SDS011;16245;51.170;4.884;2022-12-07T07:30:43;18.00;;;12.15;;
29202;SDS011;16245;51.170;4.884;2022-12-07T07:33:10;17.02;;;12.70;;
29202;SDS011;16245;51.170;4.884;2022-12-07T07:35:36;17.30;;;11.52;;
29202;SDS011;16245;51.170;4.884;2022-12-07T07:38:05;20.27;;;11.63;;
29202;SDS011;16245;51.170;4.884;2022-12-07T07:40:31;14.93;;;11.25;;
29202;SDS011;16245;51.170;4.884;2022-12-07T07:42:57;16.30;;;11.10;;
29202;SDS011;16245;51.170;4.884;2022-12-07T07:45:24;16.10;;;10.52;;
29202;SDS011;16245;51.170;4.884;2022-12-07T07:47:51;15.50;;;9.85;;
29202;SDS011;16245;51.170;4.884;2022-12-07T07:50:17;11.02;;;9.55;;
29202;SDS011;16245;51.170;4.884;2022-12-07T07:52:43;11.10;;;8.50;;
29202;SDS011;16245;51.170;4.884;2022-12-07T07:55:09;11.48;;;8.80;;
29202;SDS011;16245;51.170;4.884;2022-12-07T07:57:35;11.85;;;10.20;;
29202;SDS011;16245;51.170;4.884;2022-12-07T08:00:06;10.57;;;8.63;;
29202;SDS011;16245;51.170;4.884;2022-12-07T08:02:35;12.70;;;9.82;;
29202;SDS011;16245;51.170;4.884;2022-12-07T08:05:00;10.43;;;9.00;;
29202;SDS011;16245;51.170;4.884;2022-12-07T08:07:27;11.80;;;9.13;;
29202;SDS011;16245;51.170;4.884;2022-12-07T08:09:53;14.05;;;9.48;;
29202;SDS011;16245;51.170;4.884;2022-12-07T08:12:19;10.32;;;8.55;;
29202;SDS011;16245;51.170;4.884;2022-12-07T08:14:44;12.93;;;9.00;;
29202;SDS011;16245;51.170;4.884;2022-12-07T08:17:10;19.02;;;10.55;;
29202;SDS011;16245;51.170;4.884;2022-12-07T08:19:36;15.07;;;10.80;;
29202;SDS011;16245;51.170;4.884;2022-12-07T08:22:01;12.93;;;11.15;;
29202;SDS011;16245;51.170;4.884;2022-12-07T08:24:27;15.05;;;11.00;;
29202;SDS011;16245;51.170;4.884;2022-12-07T08:26:53;17.65;;;10.07;;
29202;SDS011;16245;51.170;4.884;2022-12-07T08:29:18;15.57;;;10.13;;
29202;SDS011;16245;51.170;4.884;2022-12-07T08:31:44;16.48;;;10.10;;
29202;SDS011;16245;51.170;4.884;2022-12-07T08:34:10;14.43;;;10.00;;
29202;SDS011;16245;51.170;4.884;2022-12-07T08:36:36;21.88;;;10.68;;
29202;SDS011;16245;51.170;4.884;2022-12-07T08:39:03;14.93;;;10.30;;
29202;SDS011;16245;51.170;4.884;2022-12-07T08:41:31;14.35;;;9.65;;
29202;SDS011;16245;51.170;4.884;2022-12-07T08:43:57;17.95;;;10.85;;
29202;SDS011;16245;51.170;4.884;2022-12-07T08:49:15;15.98;;;8.15;;
29202;SDS011;16245;51.170;4.884;2022-12-07T08:51:44;16.27;;;8.45;;
29202;SDS011;16245;51.170;4.884;2022-12-07T08:54:10;12.52;;;8.27;;
29202;SDS011;16245;51.170;4.884;2022-12-07T08:56:39;18.27;;;8.75;;
29202;SDS011;16245;51.170;4.884;2022-12-07T08:59:05;13.48;;;9.90;;
29202;SDS011;16245;51.170;4.884;2022-12-07T09:01:32;14.02;;;8.82;;
29202;SDS011;16245;51.170;4.884;2022-12-07T09:03:58;13.88;;;8.27;;
29202;SDS011;16245;51.170;4.884;2022-12-07T09:06:23;15.50;;;8.85;;
29202;SDS011;16245;51.170;4.884;2022-12-07T09:08:50;17.35;;;9.05;;
29202;SDS011;16245;51.170;4.884;2022-12-07T09:11:17;17.55;;;8.02;;
29202;SDS011;16245;51.170;4.884;2022-12-07T09:13:43;15.10;;;8.52;;
29202;SDS011;16245;51.170;4.884;2022-12-07T09:16:09;16.35;;;8.20;;
29202;SDS011;16245;51.170;4.884;2022-12-07T09:18:34;11.00;;;7.35;;
29202;SDS011;16245;51.170;4.884;2022-12-07T09:21:00;11.18;;;8.10;;
29202;SDS011;16245;51.170;4.884;2022-12-07T09:23:26;14.15;;;8.13;;
29202;SDS011;16245;51.170;4.884;2022-12-07T09:25:51;11.25;;;7.72;;
29202;SDS011;16245;51.170;4.884;2022-12-07T09:28:20;16.02;;;8.15;;
29202;SDS011;16245;51.170;4.884;2022-12-07T09:30:49;13.45;;;8.48;;
29202;SDS011;16245;51.170;4.884;2022-12-07T09:33:15;13.88;;;7.63;;
29202;SDS011;16245;51.170;4.884;2022-12-07T09:35:44;15.48;;;8.25;;
29202;SDS011;16245;51.170;4.884;2022-12-07T09:38:12;11.95;;;7.22;;
29202;SDS011;16245;51.170;4.884;2022-12-07T09:40:38;14.55;;;7.72;;
29202;SDS011;16245;51.170;4.884;2022-12-07T09:43:04;14.23;;;7.50;;
29202;SDS011;16245;51.170;4.884;2022-12-07T09:45:34;10.35;;;6.00;;
29202;SDS011;16245;51.170;4.884;2022-12-07T09:48:02;13.90;;;6.38;;
29202;SDS011;16245;51.170;4.884;2022-12-07T09:50:29;12.40;;;6.63;;
29202;SDS011;16245;51.170;4.884;2022-12-07T09:52:56;10.85;;;6.45;;
29202;SDS011;16245;51.170;4.884;2022-12-07T09:55:38;14.15;;;6.57;;
29202;SDS011;16245;51.170;4.884;2022-12-07T09:58:05;11.27;;;6.38;;
29202;SDS011;16245;51.170;4.884;2022-12-07T10:00:31;11.02;;;5.78;;
29202;SDS011;16245;51.170;4.884;2022-12-07T10:05:30;10.25;;;5.18;;
29202;SDS011;16245;51.170;4.884;2022-12-07T10:08:02;10.10;;;3.78;;
29202;SDS011;16245;51.170;4.884;2022-12-07T10:10:32;8.70;;;4.40;;
29202;SDS011;16245;51.170;4.884;2022-12-07T10:13:00;10.73;;;4.22;;
29202;SDS011;16245;51.170;4.884;2022-12-07T10:18:18;13.07;;;5.38;;
29202;SDS011;16245;51.170;4.884;2022-12-07T10:21:02;11.13;;;4.05;;
29202;SDS011;16245;51.170;4.884;2022-12-07T10:23:42;10.73;;;4.40;;
29202;SDS011;16245;51.170;4.884;2022-12-07T10:31:40;9.32;;;4.35;;
29202;SDS011;16245;51.170;4.884;2022-12-07T10:34:15;11.02;;;4.63;;
29202;SDS011;16245;51.170;4.884;2022-12-07T10:36:50;8.48;;;4.25;;
29202;SDS011;16245;51.170;4.884;2022-12-07T10:39:18;8.48;;;4.05;;
29202;SDS011;16245;51.170;4.884;2022-12-07T10:41:54;14.65;;;4.88;;
29202;SDS011;16245;51.170;4.884;2022-12-07T10:44:21;11.38;;;5.05;;
29202;SDS011;16245;51.170;4.884;2022-12-07T10:46:52;13.20;;;4.63;;
29202;SDS011;16245;51.170;4.884;2022-12-07T11:00:46;12.32;;;6.00;;
29202;SDS011;16245;51.170;4.884;2022-12-07T11:12:13;10.05;;;4.90;;
29202;SDS011;16245;51.170;4.884;2022-12-07T11:15:13;16.55;;;5.50;;
29202;SDS011;16245;51.170;4.884;2022-12-07T11:18:03;11.43;;;4.05;;
29202;SDS011;16245;51.170;4.884;2022-12-07T11:31:48;9.98;;;3.95;;
29202;SDS011;16245;51.170;4.884;2022-12-07T11:37:09;12.32;;;3.75;;
29202;SDS011;16245;51.170;4.884;2022-12-07T11:39:44;7.53;;;3.80;;
29202;SDS011;16245;51.170;4.884;2022-12-07T11:42:26;14.98;;;4.07;;
29202;SDS011;16245;51.170;4.884;2022-12-07T11:45:03;14.35;;;4.47;;
29202;SDS011;16245;51.170;4.884;2022-12-07T11:47:59;14.20;;;4.78;;
29202;SDS011;16245;51.170;4.884;2022-12-07T11:50:42;11.05;;;4.65;;
29202;SDS011;16245;51.170;4.884;2022-12-07T12:01:08;10.20;;;3.05;;
29202;SDS011;16245;51.170;4.884;2022-12-07T12:03:47;7.22;;;2.67;;
29202;SDS011;16245;51.170;4.884;2022-12-07T12:06:41;13.15;;;2.83;;
29202;SDS011;16245;51.170;4.884;2022-12-07T12:09:12;6.53;;;2.47;;
29202;SDS011;16245;51.170;4.884;2022-12-07T12:20:05;10.13;;;3.13;;
29202;SDS011;16245;51.170;4.884;2022-12-07T12:25:45;7.45;;;2.63;;
29202;SDS011;16245;51.170;4.884;2022-12-07T12:28:23;9.13;;;3.35;;
29202;SDS011;16245;51.170;4.884;2022-12-07T12:39:18;11.05;;;4.03;;
29202;SDS011;16245;51.170;4.884;2022-12-07T13:15:45;9.05;;;4.80;;
29202;SDS011;16245;51.170;4.884;2022-12-07T13:18:40;11.98;;;5.05;;
29202;SDS011;16245;51.170;4.884;2022-12-07T13:23:39;9.15;;;4.35;;
29202;SDS011;16245;51.170;4.884;2022-12-07T13:31:44;11.73;;;4.68;;
29202;SDS011;16245;51.170;4.884;2022-12-07T13:34:36;13.25;;;4.68;;
29202;SDS011;16245;51.170;4.884;2022-12-07T13:37:14;6.57;;;3.92;;
29202;SDS011;16245;51.170;4.884;2022-12-07T13:39:47;14.48;;;5.35;;
29202;SDS011;16245;51.170;4.884;2022-12-07T13:42:24;9.95;;;4.35;;
29202;SDS011;16245;51.170;4.884;2022-12-07T13:44:52;12.45;;;4.80;;
29202;SDS011;16245;51.170;4.884;2022-12-07T13:47:32;9.85;;;4.60;;
29202;SDS011;16245;51.170;4.884;2022-12-07T13:50:02;8.85;;;5.10;;
29202;SDS011;16245;51.170;4.884;2022-12-07T13:52:48;10.65;;;5.28;;
29202;SDS011;16245;51.170;4.884;2022-12-07T13:55:14;10.85;;;5.32;;
29202;SDS011;16245;51.170;4.884;2022-12-07T13:57:42;8.73;;;5.60;;
29202;SDS011;16245;51.170;4.884;2022-12-07T14:00:14;13.27;;;5.28;;
29202;SDS011;16245;51.170;4.884;2022-12-07T14:05:29;9.57;;;5.00;;
29202;SDS011;16245;51.170;4.884;2022-12-07T14:10:28;9.52;;;5.05;;
29202;SDS011;16245;51.170;4.884;2022-12-07T14:12:54;7.45;;;4.95;;
29202;SDS011;16245;51.170;4.884;2022-12-07T14:15:22;6.95;;;4.68;;
29202;SDS011;16245;51.170;4.884;2022-12-07T14:17:58;6.65;;;4.80;;
29202;SDS011;16245;51.170;4.884;2022-12-07T14:23:22;8.80;;;4.18;;
29202;SDS011;16245;51.170;4.884;2022-12-07T14:25:50;8.13;;;4.32;;
29202;SDS011;16245;51.170;4.884;2022-12-07T14:28:31;6.63;;;4.57;;
29202;SDS011;16245;51.170;4.884;2022-12-07T14:30:58;4.47;;;3.40;;
29202;SDS011;16245;51.170;4.884;2022-12-07T14:33:25;5.15;;;3.50;;
29202;SDS011;16245;51.170;4.884;2022-12-07T14:35:51;6.63;;;3.85;;
29202;SDS011;16245;51.170;4.884;2022-12-07T14:38:22;5.00;;;3.55;;
29202;SDS011;16245;51.170;4.884;2022-12-07T14:40:49;8.35;;;4.43;;
29202;SDS011;16245;51.170;4.884;2022-12-07T14:43:16;5.95;;;2.60;;
29202;SDS011;16245;51.170;4.884;2022-12-07T14:45:43;4.50;;;2.55;;
29202;SDS011;16245;51.170;4.884;2022-12-07T14:48:13;9.68;;;2.95;;
29202;SDS011;16245;51.170;4.884;2022-12-07T14:50:43;5.97;;;2.38;;
29202;SDS011;16245;51.170;4.884;2022-12-07T14:53:14;4.47;;;2.83;;
29202;SDS011;16245;51.170;4.884;2022-12-07T14:55:41;5.00;;;2.60;;
29202;SDS011;16245;51.170;4.884;2022-12-07T14:58:11;3.92;;;2.80;;
29202;SDS011;16245;51.170;4.884;2022-12-07T15:00:41;5.47;;;3.63;;
29202;SDS011;16245;51.170;4.884;2022-12-07T15:03:07;6.20;;;3.97;;
29202;SDS011;16245;51.170;4.884;2022-12-07T15:05:33;8.27;;;3.38;;
29202;SDS011;16245;51.170;4.884;2022-12-07T15:07:59;4.75;;;3.70;;
29202;SDS011;16245;51.170;4.884;2022-12-07T15:10:26;7.57;;;3.92;;
29202;SDS011;16245;51.170;4.884;2022-12-07T15:12:56;8.75;;;5.20;;
29202;SDS011;16245;51.170;4.884;2022-12-07T15:15:46;9.75;;;5.28;;
29202;SDS011;16245;51.170;4.884;2022-12-07T15:18:12;7.15;;;5.13;;
29202;SDS011;16245;51.170;4.884;2022-12-07T15:20:38;7.57;;;5.07;;
29202;SDS011;16245;51.170;4.884;2022-12-07T15:23:04;8.05;;;5.35;;
29202;SDS011;16245;51.170;4.884;2022-12-07T15:25:30;8.57;;;5.25;;
29202;SDS011;16245;51.170;4.884;2022-12-07T15:27:55;7.20;;;5.28;;
29202;SDS011;16245;51.170;4.884;2022-12-07T15:30:21;7.35;;;4.82;;
29202;SDS011;16245;51.170;4.884;2022-12-07T15:32:50;6.22;;;4.88;;
29202;SDS011;16245;51.170;4.884;2022-12-07T15:35:16;10.95;;;4.97;;
29202;SDS011;16245;51.170;4.884;2022-12-07T15:37:42;7.70;;;4.35;;
29202;SDS011;16245;51.170;4.884;2022-12-07T15:40:08;5.40;;;4.32;;
29202;SDS011;16245;51.170;4.884;2022-12-07T15:42:35;9.20;;;4.95;;
29202;SDS011;16245;51.170;4.884;2022-12-07T15:45:01;7.38;;;4.60;;
29202;SDS011;16245;51.170;4.884;2022-12-07T15:47:34;8.13;;;4.60;;
29202;SDS011;16245;51.170;4.884;2022-12-07T15:50:03;7.63;;;5.10;;
29202;SDS011;16245;51.170;4.884;2022-12-07T15:52:29;7.90;;;4.68;;
29202;SDS011;16245;51.170;4.884;2022-12-07T15:54:55;6.93;;;4.85;;
29202;SDS011;16245;51.170;4.884;2022-12-07T15:57:21;7.63;;;5.55;;
29202;SDS011;16245;51.170;4.884;2022-12-07T15:59:47;7.97;;;4.65;;
29202;SDS011;16245;51.170;4.884;2022-12-07T16:02:13;8.00;;;4.60;;
29202;SDS011;16245;51.170;4.884;2022-12-07T16:04:38;12.45;;;4.78;;
29202;SDS011;16245;51.170;4.884;2022-12-07T16:07:04;7.68;;;4.20;;
29202;SDS011;16245;51.170;4.884;2022-12-07T16:09:30;6.03;;;4.45;;
29202;SDS011;16245;51.170;4.884;2022-12-07T16:11:56;7.00;;;4.22;;
29202;SDS011;16245;51.170;4.884;2022-12-07T16:14:22;7.75;;;4.00;;
29202;SDS011;16245;51.170;4.884;2022-12-07T16:16:48;5.22;;;3.65;;
29202;SDS011;16245;51.170;4.884;2022-12-07T16:19:14;8.38;;;4.13;;
29202;SDS011;16245;51.170;4.884;2022-12-07T16:21:40;9.30;;;3.97;;
29202;SDS011;16245;51.170;4.884;2022-12-07T16:24:07;7.78;;;3.67;;
29202;SDS011;16245;51.170;4.884;2022-12-07T16:26:33;4.60;;;3.38;;
29202;SDS011;16245;51.170;4.884;2022-12-07T16:28:59;6.53;;;3.80;;
29202;SDS011;16245;51.170;4.884;2022-12-07T16:31:26;6.63;;;3.47;;
29202;SDS011;16245;51.170;4.884;2022-12-07T16:33:52;6.15;;;3.53;;
29202;SDS011;16245;51.170;4.884;2022-12-07T16:36:19;5.20;;;3.40;;
29202;SDS011;16245;51.170;4.884;2022-12-07T16:38:47;10.40;;;4.32;;
29202;SDS011;16245;51.170;4.884;2022-12-07T16:41:13;7.15;;;3.13;;
29202;SDS011;16245;51.170;4.884;2022-12-07T16:43:39;8.85;;;3.83;;
29202;SDS011;16245;51.170;4.884;2022-12-07T16:46:05;4.88;;;3.10;;
29202;SDS011;16245;51.170;4.884;2022-12-07T16:48:31;7.40;;;3.40;;
29202;SDS011;16245;51.170;4.884;2022-12-07T16:51:02;7.78;;;3.50;;
29202;SDS011;16245;51.170;4.884;2022-12-07T16:53:29;5.32;;;3.38;;
29202;SDS011;16245;51.170;4.884;2022-12-07T16:55:55;4.88;;;3.75;;
29202;SDS011;16245;51.170;4.884;2022-12-07T16:58:21;4.45;;;3.33;;
29202;SDS011;16245;51.170;4.884;2022-12-07T17:00:46;11.45;;;4.47;;
29202;SDS011;16245;51.170;4.884;2022-12-07T17:03:13;7.40;;;3.90;;
29202;SDS011;16245;51.170;4.884;2022-12-07T17:05:40;7.22;;;4.20;;
29202;SDS011;16245;51.170;4.884;2022-12-07T17:08:07;5.85;;;4.07;;
29202;SDS011;16245;51.170;4.884;2022-12-07T17:10:34;8.30;;;3.80;;
29202;SDS011;16245;51.170;4.884;2022-12-07T17:13:02;6.63;;;4.07;;
29202;SDS011;16245;51.170;4.884;2022-12-07T17:15:54;7.40;;;4.40;;
29202;SDS011;16245;51.170;4.884;2022-12-07T17:18:26;9.73;;;4.25;;
29202;SDS011;16245;51.170;4.884;2022-12-07T17:20:53;7.10;;;4.53;;
29202;SDS011;16245;51.170;4.884;2022-12-07T17:23:19;8.80;;;4.65;;
29202;SDS011;16245;51.170;4.884;2022-12-07T17:25:44;7.47;;;5.13;;
29202;SDS011;16245;51.170;4.884;2022-12-07T17:28:10;11.93;;;4.78;;
29202;SDS011;16245;51.170;4.884;2022-12-07T17:30:37;7.05;;;4.35;;
29202;SDS011;16245;51.170;4.884;2022-12-07T17:33:03;7.28;;;4.32;;